Vanguard, Canada
Current Conditions -  °F | °C
As of 8:30 AM on Sunday 23 Nov 2014 (Local Time) from CYYN Reporting Station
Light Snow Light Snow  
Wind Chill:   Ceiling: 700
Heat Index: 18°   Visibility: 6mi
Dew Point: 16°   Wind: 21mph
Humidity: 93%   Direction: 300°WNW
Pressure: 29.72"   Gusts: 28mph
Location:  49.9°N, 107.3°W
Report Text: CYYN 231430Z AUTO 30018G24KT 6SM -SN OVC007 M08/M09 A2972 RMK SLP101
Loading
Personal Weather Stations






























Interactive Weather Map New forecast layout! Learn more

10-Day Weather Forecast

Advertisements
Track Severe Weather on mobile